Terminal Aerodrome Forecast
Issued by NWS

Home | Current Version | Previous Version | Graphics & Text | Print | Product List | Glossary Off
Versions: 1 2 3 4 5 6 7 8 9 10 11 12

037
FTUS42 KMHX 261720
TAFISO
TAF
KISO 261720Z 2618/2718 16008G14KT P6SM BKN050
     FM262300 15008KT P6SM SCT250
     FM270900 VRB03KT 5SM BR SCT080
     FM271200 20008KT P6SM SCT035
      AMD LTD TO CLD VIS AND WIND=

USA.gov is the U.S. government's official web portal to all federal, state and local government web resources and services.